• Join FlightAware (Why Join?)
  • Login
  • US Flag 
04:53AM EST


 

Airport Tracker/Info


-or-


 

Live Flight TrackerFlight Track Log ✈ SWA554 ✈ 08-Apr-2013 ✈ KMKE - KBWI

Flight Track Log - Related Links

Times and Time Zones

All times are in EDT time to prevent confusion due to time zone crossing. See the SWA554 flight status page for this flight to view local times or setup timezone preferences in your user account.

Time Position Orientation Groundspeed Altitude Reporting Facility
EDT Latitude Longitude Course Direction KTS MPH feet Rate Location/Type
02:50PM 42.9853 -87.8069 60° Northeast 243 280 4,300  Level Chicago Center
02:51PM 42.9642 -87.7142 107° East 262 302 5,600 2,160 Climbing Chicago Center
02:52PM 42.8981 -87.6669 152° Southeast 264 304 8,800 3,180 Climbing Chicago Center
02:53PM 42.8306 -87.6925 196° South 271 312 12,300 2,040 Climbing Chicago Center
02:54PM 42.7458 -87.7317 199° South 296 341 13,100 1,500 Climbing Chicago Center
02:55PM 42.6544 -87.7058 168° South 333 383 15,400 2,940 Climbing Chicago Center
02:56PM 42.5528 -87.6678 165° South 363 418 19,200 3,360 Climbing Chicago Center
02:57PM 42.4539 -87.6322 165° South 367 422 22,400 2,820 Climbing Chicago Center
02:58PM 42.3517 -87.5953 165° South 378 435 25,100 2,280 Climbing Chicago Center
02:59PM 42.2558 -87.5181 149° Southeast 424 488 27,200 1,920 Climbing Chicago Center
03:00PM 42.2169 -87.3492 107° East 476 548 29,100 1,980 Climbing Chicago Center
03:01PM 42.1731 -87.1367 106° East 490 564 31,300 1,980 Climbing Chicago Center
03:02PM 42.1367 -86.9539 105° East 501 577 33,200 1,620 Climbing Chicago Center
03:03PM 42.0992 -86.7722 105° East 504 580 34,700 1,200 Climbing Chicago Center
03:04PM 42.0594 -86.5831 106° East 518 596 35,800 1,140 Climbing Chicago Center
03:05PM 42.0189 -86.3903 106° East 535 616 37,100 1,500 Climbing Chicago Center
03:06PM 41.9803 -86.2044 106° East 524 603 39,000 900 Climbing Chicago Center
03:07PM 41.9431 -86.0344 106° East 483 556 39,000  Level Chicago Center
03:08PM 41.8972 -85.8264 106° East 482 555 39,000  Level Chicago Center
03:09PM 41.8597 -85.6506 106° East 487 560 39,000  Level Chicago Center
03:10PM 41.8211 -85.4728 106° East 490 564 39,000  Level Chicago Center
03:11PM 41.7811 -85.2917 106° East 494 568 39,000  Level Chicago Center
03:12PM 41.7411 -85.1117 107° East 498 573 39,000  Level Chicago Center
03:13PM 41.7164 -84.9956 106° East 504 580 39,000  Level Cleveland Center
03:14PM 41.6753 -84.8203 107° East 504 580 39,000  Level Cleveland Center
03:15PM 41.6611 -84.6331 96° East 504 580 39,000  Level Cleveland Center
03:16PM 41.6528 -84.4519 93° East 498 573 39,000  Level Cleveland Center
03:17PM 41.6444 -84.2597 93° East 505 581 39,000  Level Cleveland Center
03:18PM 41.6331 -84.0950 95° East 505 581 39,000  Level Cleveland Center
03:19PM 41.5778 -83.9228 113° Southeast 489 563 39,000  Level Cleveland Center
03:20PM 41.5092 -83.7636 120° Southeast 494 568 39,000  Level Cleveland Center
03:21PM 41.4408 -83.5997 119° Southeast 494 568 39,000  Level Cleveland Center
03:22PM 41.3661 -83.4192 119° Southeast 500 575 39,000  Level Cleveland Center
03:23PM 41.2969 -83.2586 120° Southeast 500 575 39,000  Level Cleveland Center
03:24PM 41.2358 -83.1125 119° Southeast 500 575 39,000  Level Cleveland Center
03:25PM 41.1603 -82.9358 120° Southeast 500 575 39,000  Level Cleveland Center
03:26PM 41.0925 -82.7736 119° Southeast 500 575 39,000  Level Cleveland Center
03:27PM 41.0225 -82.6142 120° Southeast 500 575 39,000  Level Cleveland Center
03:28PM 40.9525 -82.4525 120° Southeast 500 575 39,000  Level Cleveland Center
03:29PM 40.8819 -82.2942 120° Southeast 500 575 39,000  Level Cleveland Center
03:30PM 40.8133 -82.1358 120° Southeast 495 570 39,000  Level Cleveland Center
03:31PM 40.7425 -81.9753 120° Southeast 500 575 39,000  Level Cleveland Center
03:32PM 40.6714 -81.8150 120° Southeast 500 575 39,000  Level Cleveland Center
03:33PM 40.6000 -81.6606 121° Southeast 505 581 39,000  Level Cleveland Center
03:34PM 40.5306 -81.4983 119° Southeast 505 581 39,000  Level Cleveland Center
03:35PM 40.4689 -81.3581 120° Southeast 500 575 39,000  Level Cleveland Center
03:36PM 40.3864 -81.2128 127° Southeast 500 575 39,000  Level Cleveland Center
03:37PM 40.2911 -81.0839 134° Southeast 494 568 39,000  Level Cleveland Center
03:38PM 40.2000 -80.9556 133° Southeast 482 555 39,000  Level Cleveland Center
03:39PM 40.1211 -80.8139 126° Southeast 482 555 39,000  Level Cleveland Center
03:40PM 40.0775 -80.6400 108° East 482 555 39,000 -420 Level Cleveland Center
03:41PM 40.0339 -80.4692 108° East 482 555 38,200 -900 Descending Cleveland Center
03:42PM 39.9875 -80.3014 110° East 482 555 37,300 -1,020 Descending Cleveland Center
03:43PM 39.9392 -80.1147 109° East 488 562 36,200 -840 Descending Cleveland Center
03:45PM 39.8550 -79.7972 109° East 493 567 34,900 -1,380 Descending Washington Center
03:46PM 39.8125 -79.6408 109° East 495 570 32,300 -2,460 Descending Washington Center
03:47PM 39.7678 -79.4736 109° East 495 570 30,000 -2,280 Descending Washington Center
03:48PM 39.7231 -79.3092 109° East 490 564 27,800 -2,160 Descending Washington Center
03:49PM 39.6797 -79.1533 110° East 472 543 25,700 -1,980 Descending Washington Center
03:50PM 39.6467 -79.0033 106° East 454 522 23,900 -2,040 Descending Washington Center
03:51PM 39.6011 -78.8397 110° East 447 514 21,700 -1,920 Descending Washington Center
03:52PM 39.5697 -78.6928 105° East 436 502 20,100 -1,320 Descending Washington Center
03:53PM 39.5378 -78.5489 106° East 418 481 19,100 -900 Descending Washington Center
03:54PM 39.5133 -78.4350 106° East 418 481 18,300 -900 Descending Washington Center
03:55PM 39.4814 -78.2858 105° East 402 463 17,300 -1,560 Descending Washington Center
03:56PM 39.4511 -78.1503 106° East 397 457 15,200 -1,200 Descending Washington Center
03:57PM 39.4478 -78.0103 92° East 397 457 15,000 -120 Descending Washington Center
03:58PM 39.4464 -77.8706 91° East 387 445 15,000  Level Washington Center
03:59PM 39.4489 -77.7336 89° East 387 445 15,100 -840 Climbing Washington Center
04:00PM 39.4469 -77.5964 91° East 387 445 13,400 -1,800 Descending Washington Center
04:01PM 39.4450 -77.4647 91° East 382 440 11,500 -1,200 Descending Washington Center
04:02PM 39.4489 -77.3411 88° East 360 414 11,000 -540 Descending Washington Center
04:03PM 39.4667 -77.2000 81° East 324 373 10,500 -960 Descending Potomac TRACON
04:04PM 39.4833 -77.1000 78° East 318 366 9,100 -1,380 Descending Potomac TRACON
04:05PM 39.5000 -76.9833 79° East 309 356 7,800 -1,380 Descending Potomac TRACON
04:06PM 39.4500 -76.9000 128° Southeast 281 323 6,400 -1,380 Descending Potomac TRACON
04:07PM 39.4000 -76.8667 153° Southeast 260 299 5,100 -1,260 Descending Potomac TRACON
04:08PM 39.3167 -76.8500 171° South 244 281 3,900 -1,200 Descending Potomac TRACON
04:09PM 39.2500 -76.8500 180° South 237 273 2,700 -960 Descending Potomac TRACON
04:10PM 39.1833 -76.8333 169° South 223 257 2,000 -600 Descending Potomac TRACON
04:11PM 39.1833 -76.7667 90° East 144 166 1,600 -660 Descending Potomac TRACON
04:12PM 39.1833 -76.7333 90° East 129 148 700 -900 Descending Potomac TRACON
04:14PM 39.1667 -76.6667 142° Southeast  Level FlightAware Approximate
04:21PM 39.1754 -76.6683 142° Southeast  Level Estimated
04:22PM 39.1754 -76.6683 142° Southeast  Level Estimated
04:23PM 39.1754 -76.6683 142° Southeast  Level Estimated
04:24PM 39.1754 -76.6683 142° Southeast  Level Estimated